sensor_id;sensor_type;location;lat;lon;timestamp;temperature;humidity
68251;DHT22;55066;51.560;4.642;2024-02-26T00:00:33;6.63;99.99
68251;DHT22;55066;51.560;4.642;2024-02-26T00:03:00;6.63;99.99
68251;DHT22;55066;51.560;4.642;2024-02-26T00:05:26;6.69;99.99
68251;DHT22;55066;51.560;4.642;2024-02-26T00:07:51;6.75;99.99
68251;DHT22;55066;51.560;4.642;2024-02-26T00:10:16;6.75;99.99
68251;DHT22;55066;51.560;4.642;2024-02-26T00:12:42;6.77;99.99
68251;DHT22;55066;51.560;4.642;2024-02-26T00:15:08;6.79;99.99
68251;DHT22;55066;51.560;4.642;2024-02-26T00:17:34;6.73;99.99
68251;DHT22;55066;51.560;4.642;2024-02-26T00:19:59;6.66;99.99
68251;DHT22;55066;51.560;4.642;2024-02-26T00:22:26;6.73;99.99
68251;DHT22;55066;51.560;4.642;2024-02-26T00:24:51;6.73;99.99
68251;DHT22;55066;51.560;4.642;2024-02-26T00:27:17;6.68;99.99
68251;DHT22;55066;51.560;4.642;2024-02-26T00:29:42;6.66;99.99
68251;DHT22;55066;51.560;4.642;2024-02-26T00:32:08;6.59;99.99
68251;DHT22;55066;51.560;4.642;2024-02-26T00:34:33;6.50;99.99
68251;DHT22;55066;51.560;4.642;2024-02-26T00:36:59;6.57;99.99
68251;DHT22;55066;51.560;4.642;2024-02-26T00:39:24;6.61;99.99
68251;DHT22;55066;51.560;4.642;2024-02-26T00:41:50;6.57;99.99
68251;DHT22;55066;51.560;4.642;2024-02-26T00:44:17;6.55;99.99
68251;DHT22;55066;51.560;4.642;2024-02-26T00:46:42;6.59;99.99
68251;DHT22;55066;51.560;4.642;2024-02-26T00:49:08;6.59;99.99
68251;DHT22;55066;51.560;4.642;2024-02-26T00:51:33;6.53;99.99
68251;DHT22;55066;51.560;4.642;2024-02-26T00:53:58;6.52;99.99
68251;DHT22;55066;51.560;4.642;2024-02-26T00:56:24;6.45;99.99
68251;DHT22;55066;51.560;4.642;2024-02-26T00:58:49;6.45;99.99
68251;DHT22;55066;51.560;4.642;2024-02-26T01:01:15;6.39;99.99
68251;DHT22;55066;51.560;4.642;2024-02-26T01:03:40;6.39;99.99
68251;DHT22;55066;51.560;4.642;2024-02-26T01:06:08;6.32;99.99
68251;DHT22;55066;51.560;4.642;2024-02-26T01:08:34;6.38;99.99
68251;DHT22;55066;51.560;4.642;2024-02-26T01:11:01;6.36;99.99
68251;DHT22;55066;51.560;4.642;2024-02-26T01:13:26;6.35;99.99
68251;DHT22;55066;51.560;4.642;2024-02-26T01:15:52;6.31;99.99
68251;DHT22;55066;51.560;4.642;2024-02-26T01:18:17;6.34;99.99
68251;DHT22;55066;51.560;4.642;2024-02-26T01:20:43;6.32;99.99
68251;DHT22;55066;51.560;4.642;2024-02-26T01:23:08;6.39;99.99
68251;DHT22;55066;51.560;4.642;2024-02-26T01:25:34;6.38;99.99
68251;DHT22;55066;51.560;4.642;2024-02-26T01:27:59;6.35;99.99
68251;DHT22;55066;51.560;4.642;2024-02-26T01:30:25;6.41;99.99
68251;DHT22;55066;51.560;4.642;2024-02-26T01:32:50;6.42;99.99
68251;DHT22;55066;51.560;4.642;2024-02-26T01:35:18;6.36;99.99
68251;DHT22;55066;51.560;4.642;2024-02-26T01:37:44;6.44;99.99
68251;DHT22;55066;51.560;4.642;2024-02-26T01:40:10;6.42;99.99
68251;DHT22;55066;51.560;4.642;2024-02-26T01:42:38;6.45;99.99
68251;DHT22;55066;51.560;4.642;2024-02-26T01:45:05;6.46;99.99
68251;DHT22;55066;51.560;4.642;2024-02-26T01:47:32;6.46;99.99
68251;DHT22;55066;51.560;4.642;2024-02-26T01:49:58;6.38;99.99
68251;DHT22;55066;51.560;4.642;2024-02-26T01:52:23;6.35;99.99
68251;DHT22;55066;51.560;4.642;2024-02-26T01:54:49;6.34;99.99
68251;DHT22;55066;51.560;4.642;2024-02-26T01:57:15;6.24;99.99
68251;DHT22;55066;51.560;4.642;2024-02-26T01:59:41;6.20;99.99
68251;DHT22;55066;51.560;4.642;2024-02-26T02:02:08;6.25;99.99
68251;DHT22;55066;51.560;4.642;2024-02-26T02:04:35;6.10;99.99
68251;DHT22;55066;51.560;4.642;2024-02-26T02:07:01;6.14;99.99
68251;DHT22;55066;51.560;4.642;2024-02-26T02:09:27;6.22;99.99
68251;DHT22;55066;51.560;4.642;2024-02-26T02:11:53;6.17;99.99
68251;DHT22;55066;51.560;4.642;2024-02-26T02:14:18;6.08;99.99
68251;DHT22;55066;51.560;4.642;2024-02-26T02:16:44;6.06;99.99
68251;DHT22;55066;51.560;4.642;2024-02-26T02:19:09;6.01;99.99
68251;DHT22;55066;51.560;4.642;2024-02-26T02:21:35;5.90;99.99
68251;DHT22;55066;51.560;4.642;2024-02-26T02:24:00;5.91;99.99
68251;DHT22;55066;51.560;4.642;2024-02-26T02:26:26;5.90;99.99
68251;DHT22;55066;51.560;4.642;2024-02-26T02:28:53;5.86;99.99
68251;DHT22;55066;51.560;4.642;2024-02-26T02:31:18;5.83;99.99
68251;DHT22;55066;51.560;4.642;2024-02-26T02:33:44;5.85;99.99
68251;DHT22;55066;51.560;4.642;2024-02-26T02:36:10;5.83;99.99
68251;DHT22;55066;51.560;4.642;2024-02-26T02:38:37;5.79;99.99
68251;DHT22;55066;51.560;4.642;2024-02-26T02:41:04;5.80;99.99
68251;DHT22;55066;51.560;4.642;2024-02-26T02:43:30;5.80;99.99
68251;DHT22;55066;51.560;4.642;2024-02-26T02:45:55;5.80;99.99
68251;DHT22;55066;51.560;4.642;2024-02-26T02:48:21;5.74;99.99
68251;DHT22;55066;51.560;4.642;2024-02-26T02:50:46;5.71;99.99
68251;DHT22;55066;51.560;4.642;2024-02-26T02:53:12;5.67;99.99
68251;DHT22;55066;51.560;4.642;2024-02-26T02:55:37;5.63;99.99
68251;DHT22;55066;51.560;4.642;2024-02-26T02:58:03;5.56;99.99
68251;DHT22;55066;51.560;4.642;2024-02-26T03:00:28;5.58;99.99
68251;DHT22;55066;51.560;4.642;2024-02-26T03:02:54;5.56;99.99
68251;DHT22;55066;51.560;4.642;2024-02-26T03:05:19;5.58;99.99
68251;DHT22;55066;51.560;4.642;2024-02-26T03:07:45;5.43;99.99
68251;DHT22;55066;51.560;4.642;2024-02-26T03:10:10;5.42;99.99
68251;DHT22;55066;51.560;4.642;2024-02-26T03:12:35;5.38;99.99
68251;DHT22;55066;51.560;4.642;2024-02-26T03:15:01;5.36;99.99
68251;DHT22;55066;51.560;4.642;2024-02-26T03:17:28;5.38;99.99
68251;DHT22;55066;51.560;4.642;2024-02-26T03:19:54;5.39;99.99
68251;DHT22;55066;51.560;4.642;2024-02-26T03:22:21;5.32;99.99
68251;DHT22;55066;51.560;4.642;2024-02-26T03:24:47;5.27;99.99
68251;DHT22;55066;51.560;4.642;2024-02-26T03:27:13;5.20;99.99
68251;DHT22;55066;51.560;4.642;2024-02-26T03:29:38;5.11;99.99
68251;DHT22;55066;51.560;4.642;2024-02-26T03:32:04;5.17;99.99
68251;DHT22;55066;51.560;4.642;2024-02-26T03:34:31;5.14;99.99
68251;DHT22;55066;51.560;4.642;2024-02-26T03:36:57;5.11;99.99
68251;DHT22;55066;51.560;4.642;2024-02-26T03:39:22;5.14;99.99
68251;DHT22;55066;51.560;4.642;2024-02-26T03:41:49;5.10;99.99
68251;DHT22;55066;51.560;4.642;2024-02-26T03:44:14;5.03;99.99
68251;DHT22;55066;51.560;4.642;2024-02-26T03:46:40;5.04;99.99
68251;DHT22;55066;51.560;4.642;2024-02-26T03:49:08;5.03;99.99
68251;DHT22;55066;51.560;4.642;2024-02-26T03:51:33;5.00;99.99
68251;DHT22;55066;51.560;4.642;2024-02-26T03:53:59;4.97;99.99
68251;DHT22;55066;51.560;4.642;2024-02-26T03:56:25;4.93;99.99
68251;DHT22;55066;51.560;4.642;2024-02-26T03:58:51;4.93;99.99
68251;DHT22;55066;51.560;4.642;2024-02-26T04:01:16;4.93;99.99
68251;DHT22;55066;51.560;4.642;2024-02-26T04:03:42;4.91;99.99
68251;DHT22;55066;51.560;4.642;2024-02-26T04:06:10;4.91;99.99
68251;DHT22;55066;51.560;4.642;2024-02-26T04:08:37;4.95;99.99
68251;DHT22;55066;51.560;4.642;2024-02-26T04:11:03;4.93;99.99
68251;DHT22;55066;51.560;4.642;2024-02-26T04:13:36;4.91;99.99
68251;DHT22;55066;51.560;4.642;2024-02-26T04:16:04;4.97;99.99
68251;DHT22;55066;51.560;4.642;2024-02-26T04:18:31;4.93;99.99
68251;DHT22;55066;51.560;4.642;2024-02-26T04:20:57;4.90;99.99
68251;DHT22;55066;51.560;4.642;2024-02-26T04:23:22;4.93;99.99
68251;DHT22;55066;51.560;4.642;2024-02-26T04:25:48;4.97;99.99
68251;DHT22;55066;51.560;4.642;2024-02-26T04:28:13;4.93;99.99
68251;DHT22;55066;51.560;4.642;2024-02-26T04:30:40;4.97;99.99
68251;DHT22;55066;51.560;4.642;2024-02-26T04:33:06;4.93;99.99
68251;DHT22;55066;51.560;4.642;2024-02-26T04:35:31;4.93;99.99
68251;DHT22;55066;51.560;4.642;2024-02-26T04:37:57;4.94;99.99
68251;DHT22;55066;51.560;4.642;2024-02-26T04:40:23;4.98;99.99
68251;DHT22;55066;51.560;4.642;2024-02-26T04:42:49;4.93;99.99
68251;DHT22;55066;51.560;4.642;2024-02-26T04:45:15;4.94;99.99
68251;DHT22;55066;51.560;4.642;2024-02-26T04:47:40;4.97;99.99
68251;DHT22;55066;51.560;4.642;2024-02-26T04:50:06;4.97;99.99
68251;DHT22;55066;51.560;4.642;2024-02-26T04:52:32;4.97;99.99
68251;DHT22;55066;51.560;4.642;2024-02-26T04:54:57;4.98;99.99
68251;DHT22;55066;51.560;4.642;2024-02-26T04:57:25;5.00;99.99
68251;DHT22;55066;51.560;4.642;2024-02-26T04:59:51;4.95;99.99
68251;DHT22;55066;51.560;4.642;2024-02-26T05:02:17;5.01;99.99
68251;DHT22;55066;51.560;4.642;2024-02-26T05:04:43;5.00;99.99
68251;DHT22;55066;51.560;4.642;2024-02-26T05:07:08;4.97;99.99
68251;DHT22;55066;51.560;4.642;2024-02-26T05:09:34;5.00;99.99
68251;DHT22;55066;51.560;4.642;2024-02-26T05:11:59;4.98;99.99
68251;DHT22;55066;51.560;4.642;2024-02-26T05:14:25;4.97;99.99
68251;DHT22;55066;51.560;4.642;2024-02-26T05:16:50;4.98;99.99
68251;DHT22;55066;51.560;4.642;2024-02-26T05:19:16;5.05;99.99
68251;DHT22;55066;51.560;4.642;2024-02-26T05:21:41;5.05;99.99
68251;DHT22;55066;51.560;4.642;2024-02-26T05:24:10;5.00;99.99
68251;DHT22;55066;51.560;4.642;2024-02-26T05:26:36;5.07;99.99
68251;DHT22;55066;51.560;4.642;2024-02-26T05:29:01;5.05;99.99
68251;DHT22;55066;51.560;4.642;2024-02-26T05:31:27;5.07;99.99
68251;DHT22;55066;51.560;4.642;2024-02-26T05:33:54;5.03;99.99
68251;DHT22;55066;51.560;4.642;2024-02-26T05:36:23;5.11;99.99
68251;DHT22;55066;51.560;4.642;2024-02-26T05:38:50;5.15;99.99
68251;DHT22;55066;51.560;4.642;2024-02-26T05:41:16;5.08;99.99
68251;DHT22;55066;51.560;4.642;2024-02-26T05:43:42;5.15;99.99
68251;DHT22;55066;51.560;4.642;2024-02-26T05:46:07;5.05;99.99
68251;DHT22;55066;51.560;4.642;2024-02-26T05:48:33;5.00;99.99
68251;DHT22;55066;51.560;4.642;2024-02-26T05:50:59;4.98;99.99
68251;DHT22;55066;51.560;4.642;2024-02-26T05:53:24;4.98;99.99
68251;DHT22;55066;51.560;4.642;2024-02-26T05:55:49;5.00;99.99
68251;DHT22;55066;51.560;4.642;2024-02-26T05:58:15;5.00;99.99
68251;DHT22;55066;51.560;4.642;2024-02-26T06:00:40;4.97;99.99
68251;DHT22;55066;51.560;4.642;2024-02-26T06:03:06;5.03;99.99
68251;DHT22;55066;51.560;4.642;2024-02-26T06:05:31;4.94;99.99
68251;DHT22;55066;51.560;4.642;2024-02-26T06:07:57;5.05;99.99
68251;DHT22;55066;51.560;4.642;2024-02-26T06:10:22;4.98;99.99
68251;DHT22;55066;51.560;4.642;2024-02-26T06:12:48;5.07;99.99
68251;DHT22;55066;51.560;4.642;2024-02-26T06:15:16;5.05;99.99
68251;DHT22;55066;51.560;4.642;2024-02-26T06:17:41;5.00;99.99
68251;DHT22;55066;51.560;4.642;2024-02-26T06:20:07;5.03;99.99
68251;DHT22;55066;51.560;4.642;2024-02-26T06:22:37;4.95;99.99
68251;DHT22;55066;51.560;4.642;2024-02-26T06:25:02;4.95;99.99
68251;DHT22;55066;51.560;4.642;2024-02-26T06:27:28;4.98;99.99
68251;DHT22;55066;51.560;4.642;2024-02-26T06:29:53;5.00;99.99
68251;DHT22;55066;51.560;4.642;2024-02-26T06:32:19;4.91;99.99
68251;DHT22;55066;51.560;4.642;2024-02-26T06:34:44;4.97;99.99
68251;DHT22;55066;51.560;4.642;2024-02-26T06:37:10;4.93;99.99
68251;DHT22;55066;51.560;4.642;2024-02-26T06:39:35;5.03;99.99
68251;DHT22;55066;51.560;4.642;2024-02-26T06:42:01;4.94;99.99
68251;DHT22;55066;51.560;4.642;2024-02-26T06:44:29;4.88;99.99
68251;DHT22;55066;51.560;4.642;2024-02-26T06:46:58;4.83;99.99
68251;DHT22;55066;51.560;4.642;2024-02-26T06:49:24;4.86;99.99
68251;DHT22;55066;51.560;4.642;2024-02-26T06:51:49;4.87;99.99
68251;DHT22;55066;51.560;4.642;2024-02-26T06:54:16;4.83;99.99
68251;DHT22;55066;51.560;4.642;2024-02-26T06:56:42;4.86;99.99
68251;DHT22;55066;51.560;4.642;2024-02-26T06:59:07;4.80;99.99
68251;DHT22;55066;51.560;4.642;2024-02-26T07:01:34;4.90;99.99
68251;DHT22;55066;51.560;4.642;2024-02-26T07:04:01;4.87;99.99
68251;DHT22;55066;51.560;4.642;2024-02-26T07:06:27;4.80;99.99
68251;DHT22;55066;51.560;4.642;2024-02-26T07:08:52;4.77;99.99
68251;DHT22;55066;51.560;4.642;2024-02-26T07:11:18;4.88;99.99
68251;DHT22;55066;51.560;4.642;2024-02-26T07:13:48;4.93;99.99
68251;DHT22;55066;51.560;4.642;2024-02-26T07:16:15;4.90;99.99
68251;DHT22;55066;51.560;4.642;2024-02-26T07:18:40;4.87;99.99
68251;DHT22;55066;51.560;4.642;2024-02-26T07:21:06;4.90;99.99
68251;DHT22;55066;51.560;4.642;2024-02-26T07:23:31;4.84;99.99
68251;DHT22;55066;51.560;4.642;2024-02-26T07:25:57;4.88;99.99
68251;DHT22;55066;51.560;4.642;2024-02-26T07:28:22;4.90;99.99
68251;DHT22;55066;51.560;4.642;2024-02-26T07:30:48;4.91;99.99
68251;DHT22;55066;51.560;4.642;2024-02-26T07:33:13;4.88;99.99
68251;DHT22;55066;51.560;4.642;2024-02-26T07:35:39;4.87;99.99
68251;DHT22;55066;51.560;4.642;2024-02-26T07:38:07;4.83;99.99
68251;DHT22;55066;51.560;4.642;2024-02-26T07:40:33;4.88;99.99
68251;DHT22;55066;51.560;4.642;2024-02-26T07:42:58;4.88;99.99
68251;DHT22;55066;51.560;4.642;2024-02-26T07:45:24;4.93;99.99
68251;DHT22;55066;51.560;4.642;2024-02-26T07:47:49;4.95;99.99
68251;DHT22;55066;51.560;4.642;2024-02-26T07:50:17;4.90;99.99
68251;DHT22;55066;51.560;4.642;2024-02-26T07:52:42;4.88;99.99
68251;DHT22;55066;51.560;4.642;2024-02-26T07:55:15;4.86;99.99
68251;DHT22;55066;51.560;4.642;2024-02-26T07:57:42;4.88;99.99
68251;DHT22;55066;51.560;4.642;2024-02-26T08:00:10;4.83;99.99
68251;DHT22;55066;51.560;4.642;2024-02-26T08:02:38;4.84;99.99
68251;DHT22;55066;51.560;4.642;2024-02-26T08:05:04;4.84;99.99
68251;DHT22;55066;51.560;4.642;2024-02-26T08:07:30;4.83;99.99
68251;DHT22;55066;51.560;4.642;2024-02-26T08:09:55;4.77;99.99
68251;DHT22;55066;51.560;4.642;2024-02-26T08:12:21;4.81;99.99
68251;DHT22;55066;51.560;4.642;2024-02-26T08:14:46;4.86;99.99
68251;DHT22;55066;51.560;4.642;2024-02-26T08:17:11;4.95;99.99
68251;DHT22;55066;51.560;4.642;2024-02-26T08:19:37;4.88;99.99
68251;DHT22;55066;51.560;4.642;2024-02-26T08:22:03;4.91;99.99
68251;DHT22;55066;51.560;4.642;2024-02-26T08:24:28;4.93;99.99
68251;DHT22;55066;51.560;4.642;2024-02-26T08:26:54;4.94;99.99
68251;DHT22;55066;51.560;4.642;2024-02-26T08:29:19;4.88;99.99
68251;DHT22;55066;51.560;4.642;2024-02-26T08:31:44;4.91;99.99
68251;DHT22;55066;51.560;4.642;2024-02-26T08:34:10;4.91;99.99
68251;DHT22;55066;51.560;4.642;2024-02-26T08:36:36;4.93;99.99
68251;DHT22;55066;51.560;4.642;2024-02-26T08:39:01;4.98;99.99
68251;DHT22;55066;51.560;4.642;2024-02-26T08:41:27;4.95;99.99
68251;DHT22;55066;51.560;4.642;2024-02-26T08:43:52;4.90;99.99
68251;DHT22;55066;51.560;4.642;2024-02-26T08:46:17;4.97;99.99
68251;DHT22;55066;51.560;4.642;2024-02-26T08:48:43;4.95;99.99
68251;DHT22;55066;51.560;4.642;2024-02-26T08:51:09;4.91;99.99
68251;DHT22;55066;51.560;4.642;2024-02-26T08:53:38;4.93;99.99
68251;DHT22;55066;51.560;4.642;2024-02-26T08:56:04;4.94;99.99
68251;DHT22;55066;51.560;4.642;2024-02-26T08:58:30;4.95;99.99
68251;DHT22;55066;51.560;4.642;2024-02-26T09:00:57;4.91;99.99
68251;DHT22;55066;51.560;4.642;2024-02-26T09:03:22;4.91;99.99
68251;DHT22;55066;51.560;4.642;2024-02-26T09:05:48;4.93;99.99
68251;DHT22;55066;51.560;4.642;2024-02-26T09:08:14;4.94;99.99
68251;DHT22;55066;51.560;4.642;2024-02-26T09:10:40;4.98;99.99
68251;DHT22;55066;51.560;4.642;2024-02-26T09:13:05;5.01;99.99
68251;DHT22;55066;51.560;4.642;2024-02-26T09:15:31;5.05;99.99
68251;DHT22;55066;51.560;4.642;2024-02-26T09:17:56;5.07;99.99
68251;DHT22;55066;51.560;4.642;2024-02-26T09:20:22;5.07;99.99
68251;DHT22;55066;51.560;4.642;2024-02-26T09:22:49;5.15;99.99
68251;DHT22;55066;51.560;4.642;2024-02-26T09:25:19;5.14;99.99
68251;DHT22;55066;51.560;4.642;2024-02-26T09:27:45;5.13;99.99
68251;DHT22;55066;51.560;4.642;2024-02-26T09:30:12;5.15;99.99
68251;DHT22;55066;51.560;4.642;2024-02-26T09:32:38;5.18;99.99
68251;DHT22;55066;51.560;4.642;2024-02-26T09:35:05;5.20;99.99
68251;DHT22;55066;51.560;4.642;2024-02-26T09:37:31;5.21;99.99
68251;DHT22;55066;51.560;4.642;2024-02-26T09:39:56;5.17;99.99
68251;DHT22;55066;51.560;4.642;2024-02-26T09:42:25;5.20;99.99
68251;DHT22;55066;51.560;4.642;2024-02-26T09:44:54;5.20;99.99
68251;DHT22;55066;51.560;4.642;2024-02-26T09:47:26;5.21;99.99
68251;DHT22;55066;51.560;4.642;2024-02-26T09:49:56;5.18;99.99
68251;DHT22;55066;51.560;4.642;2024-02-26T09:52:23;5.21;99.99
68251;DHT22;55066;51.560;4.642;2024-02-26T09:54:49;5.22;99.99
68251;DHT22;55066;51.560;4.642;2024-02-26T09:57:15;5.22;99.99
68251;DHT22;55066;51.560;4.642;2024-02-26T09:59:43;5.24;99.99
68251;DHT22;55066;51.560;4.642;2024-02-26T10:02:14;5.21;99.99
68251;DHT22;55066;51.560;4.642;2024-02-26T10:04:40;5.24;99.99
68251;DHT22;55066;51.560;4.642;2024-02-26T10:07:10;5.28;99.99
68251;DHT22;55066;51.560;4.642;2024-02-26T10:09:36;5.25;99.99
68251;DHT22;55066;51.560;4.642;2024-02-26T10:12:02;5.30;99.99
68251;DHT22;55066;51.560;4.642;2024-02-26T10:14:28;5.30;99.99
68251;DHT22;55066;51.560;4.642;2024-02-26T10:16:55;5.21;99.99
68251;DHT22;55066;51.560;4.642;2024-02-26T10:19:30;5.20;99.99
68251;DHT22;55066;51.560;4.642;2024-02-26T10:22:00;5.24;99.99
68251;DHT22;55066;51.560;4.642;2024-02-26T10:24:29;5.17;99.99
68251;DHT22;55066;51.560;4.642;2024-02-26T10:26:55;5.21;99.99
68251;DHT22;55066;51.560;4.642;2024-02-26T10:29:23;5.17;99.99
68251;DHT22;55066;51.560;4.642;2024-02-26T10:31:50;5.14;99.99
68251;DHT22;55066;51.560;4.642;2024-02-26T10:34:16;5.13;99.99
68251;DHT22;55066;51.560;4.642;2024-02-26T10:36:42;5.17;99.99
68251;DHT22;55066;51.560;4.642;2024-02-26T10:39:09;5.18;99.99
68251;DHT22;55066;51.560;4.642;2024-02-26T10:41:35;5.17;99.99
68251;DHT22;55066;51.560;4.642;2024-02-26T10:44:01;5.15;99.99
68251;DHT22;55066;51.560;4.642;2024-02-26T10:46:27;5.15;99.99
68251;DHT22;55066;51.560;4.642;2024-02-26T10:48:53;5.14;99.99
68251;DHT22;55066;51.560;4.642;2024-02-26T10:51:26;5.20;99.99
68251;DHT22;55066;51.560;4.642;2024-02-26T10:53:57;5.17;99.99
68251;DHT22;55066;51.560;4.642;2024-02-26T10:56:28;5.15;99.99
68251;DHT22;55066;51.560;4.642;2024-02-26T10:58:57;5.15;99.99
68251;DHT22;55066;51.560;4.642;2024-02-26T11:01:24;5.18;99.99
68251;DHT22;55066;51.560;4.642;2024-02-26T11:03:52;5.17;99.99
68251;DHT22;55066;51.560;4.642;2024-02-26T11:06:26;5.17;99.99
68251;DHT22;55066;51.560;4.642;2024-02-26T11:08:51;5.18;99.99
68251;DHT22;55066;51.560;4.642;2024-02-26T11:11:18;5.17;99.99
68251;DHT22;55066;51.560;4.642;2024-02-26T11:13:46;5.15;99.99
68251;DHT22;55066;51.560;4.642;2024-02-26T11:16:17;5.18;99.99
68251;DHT22;55066;51.560;4.642;2024-02-26T11:18:43;5.18;99.99
68251;DHT22;55066;51.560;4.642;2024-02-26T11:21:15;5.14;99.99
68251;DHT22;55066;51.560;4.642;2024-02-26T11:23:42;5.20;99.99
68251;DHT22;55066;51.560;4.642;2024-02-26T11:26:09;5.18;99.99
68251;DHT22;55066;51.560;4.642;2024-02-26T11:28:36;5.21;99.99
68251;DHT22;55066;51.560;4.642;2024-02-26T11:31:03;5.21;99.99
68251;DHT22;55066;51.560;4.642;2024-02-26T11:33:30;5.21;99.99
68251;DHT22;55066;51.560;4.642;2024-02-26T11:35:55;5.17;99.99
68251;DHT22;55066;51.560;4.642;2024-02-26T11:38:23;5.20;99.99
68251;DHT22;55066;51.560;4.642;2024-02-26T11:40:49;5.21;99.99
68251;DHT22;55066;51.560;4.642;2024-02-26T11:43:15;5.25;99.99
68251;DHT22;55066;51.560;4.642;2024-02-26T11:48:20;5.27;99.99
68251;DHT22;55066;51.560;4.642;2024-02-26T11:50:51;5.21;99.99
68251;DHT22;55066;51.560;4.642;2024-02-26T11:56:21;5.27;99.99
68251;DHT22;55066;51.560;4.642;2024-02-26T11:59:00;5.35;99.99
68251;DHT22;55066;51.560;4.642;2024-02-26T12:01:43;5.30;99.99
68251;DHT22;55066;51.560;4.642;2024-02-26T12:09:13;5.38;99.99
68251;DHT22;55066;51.560;4.642;2024-02-26T12:11:40;5.34;99.99
68251;DHT22;55066;51.560;4.642;2024-02-26T12:14:08;5.41;99.99
68251;DHT22;55066;51.560;4.642;2024-02-26T12:16:40;5.46;99.99
68251;DHT22;55066;51.560;4.642;2024-02-26T12:19:09;5.46;99.99
68251;DHT22;55066;51.560;4.642;2024-02-26T12:21:37;5.45;99.99
68251;DHT22;55066;51.560;4.642;2024-02-26T12:24:15;5.48;99.99
68251;DHT22;55066;51.560;4.642;2024-02-26T12:26:41;5.42;99.99
68251;DHT22;55066;51.560;4.642;2024-02-26T12:29:07;5.48;99.99
68251;DHT22;55066;51.560;4.642;2024-02-26T12:31:33;5.45;99.99
68251;DHT22;55066;51.560;4.642;2024-02-26T12:34:01;5.42;99.99
68251;DHT22;55066;51.560;4.642;2024-02-26T12:36:26;5.43;99.99
68251;DHT22;55066;51.560;4.642;2024-02-26T12:38:52;5.48;99.99
68251;DHT22;55066;51.560;4.642;2024-02-26T12:41:18;5.46;99.99
68251;DHT22;55066;51.560;4.642;2024-02-26T12:43:43;5.49;99.99
68251;DHT22;55066;51.560;4.642;2024-02-26T12:46:10;5.46;99.99
68251;DHT22;55066;51.560;4.642;2024-02-26T12:48:36;5.53;99.99
68251;DHT22;55066;51.560;4.642;2024-02-26T12:51:01;5.49;99.99
68251;DHT22;55066;51.560;4.642;2024-02-26T12:53:27;5.46;99.99
68251;DHT22;55066;51.560;4.642;2024-02-26T12:55:54;5.48;99.99
68251;DHT22;55066;51.560;4.642;2024-02-26T12:58:21;5.49;99.99
68251;DHT22;55066;51.560;4.642;2024-02-26T13:00:51;5.51;99.99
68251;DHT22;55066;51.560;4.642;2024-02-26T13:03:18;5.49;99.99
68251;DHT22;55066;51.560;4.642;2024-02-26T13:05:44;5.49;99.99
68251;DHT22;55066;51.560;4.642;2024-02-26T13:08:16;5.48;99.99
68251;DHT22;55066;51.560;4.642;2024-02-26T13:10:42;5.46;99.99
68251;DHT22;55066;51.560;4.642;2024-02-26T13:13:07;5.52;99.99
68251;DHT22;55066;51.560;4.642;2024-02-26T13:15:34;5.51;99.99
68251;DHT22;55066;51.560;4.642;2024-02-26T13:18:12;5.46;99.99
68251;DHT22;55066;51.560;4.642;2024-02-26T13:20:37;5.46;99.99
68251;DHT22;55066;51.560;4.642;2024-02-26T13:23:07;5.48;99.99
68251;DHT22;55066;51.560;4.642;2024-02-26T13:25:34;5.48;99.99
68251;DHT22;55066;51.560;4.642;2024-02-26T13:28:07;5.49;99.99
68251;DHT22;55066;51.560;4.642;2024-02-26T13:30:33;5.52;99.99
68251;DHT22;55066;51.560;4.642;2024-02-26T13:33:07;5.56;99.99
68251;DHT22;55066;51.560;4.642;2024-02-26T13:35:34;5.60;99.99
68251;DHT22;55066;51.560;4.642;2024-02-26T13:38:00;5.56;99.99
68251;DHT22;55066;51.560;4.642;2024-02-26T13:40:25;5.56;99.99
68251;DHT22;55066;51.560;4.642;2024-02-26T13:42:51;5.56;99.99
68251;DHT22;55066;51.560;4.642;2024-02-26T13:45:18;5.58;99.99
68251;DHT22;55066;51.560;4.642;2024-02-26T13:47:45;5.59;99.99
68251;DHT22;55066;51.560;4.642;2024-02-26T13:50:10;5.60;99.99
68251;DHT22;55066;51.560;4.642;2024-02-26T13:52:36;5.60;99.99
68251;DHT22;55066;51.560;4.642;2024-02-26T13:55:01;5.59;99.99
68251;DHT22;55066;51.560;4.642;2024-02-26T13:57:28;5.58;99.99
68251;DHT22;55066;51.560;4.642;2024-02-26T13:59:54;5.59;99.99
68251;DHT22;55066;51.560;4.642;2024-02-26T14:02:20;5.56;99.99
68251;DHT22;55066;51.560;4.642;2024-02-26T14:04:46;5.60;99.99
68251;DHT22;55066;51.560;4.642;2024-02-26T14:07:12;5.60;99.99
68251;DHT22;55066;51.560;4.642;2024-02-26T14:09:38;5.62;99.99
68251;DHT22;55066;51.560;4.642;2024-02-26T14:12:04;5.60;99.99
68251;DHT22;55066;51.560;4.642;2024-02-26T14:14:30;5.63;99.99
68251;DHT22;55066;51.560;4.642;2024-02-26T14:16:58;5.67;99.99
68251;DHT22;55066;51.560;4.642;2024-02-26T14:19:24;5.60;99.99
68251;DHT22;55066;51.560;4.642;2024-02-26T14:21:49;5.63;99.99
68251;DHT22;55066;51.560;4.642;2024-02-26T14:24:15;5.66;99.99
68251;DHT22;55066;51.560;4.642;2024-02-26T14:26:41;5.65;99.99
68251;DHT22;55066;51.560;4.642;2024-02-26T14:29:06;5.63;99.99
68251;DHT22;55066;51.560;4.642;2024-02-26T14:31:33;5.65;99.99
68251;DHT22;55066;51.560;4.642;2024-02-26T14:33:59;5.62;99.99
68251;DHT22;55066;51.560;4.642;2024-02-26T14:36:25;5.69;99.99
68251;DHT22;55066;51.560;4.642;2024-02-26T14:38:51;5.67;99.99
68251;DHT22;55066;51.560;4.642;2024-02-26T14:41:16;5.67;99.99
68251;DHT22;55066;51.560;4.642;2024-02-26T14:43:42;5.65;99.99
68251;DHT22;55066;51.560;4.642;2024-02-26T14:46:07;5.66;99.99
68251;DHT22;55066;51.560;4.642;2024-02-26T14:48:33;5.66;99.99
68251;DHT22;55066;51.560;4.642;2024-02-26T14:50:59;5.67;99.99
68251;DHT22;55066;51.560;4.642;2024-02-26T14:53:25;5.66;99.99
68251;DHT22;55066;51.560;4.642;2024-02-26T14:55:51;5.65;99.99
68251;DHT22;55066;51.560;4.642;2024-02-26T14:58:18;5.62;99.99
68251;DHT22;55066;51.560;4.642;2024-02-26T15:00:44;5.63;99.99
68251;DHT22;55066;51.560;4.642;2024-02-26T15:03:10;5.67;99.99
68251;DHT22;55066;51.560;4.642;2024-02-26T15:05:36;5.60;99.99
68251;DHT22;55066;51.560;4.642;2024-02-26T15:08:02;5.65;99.99
68251;DHT22;55066;51.560;4.642;2024-02-26T15:10:30;5.65;99.99
68251;DHT22;55066;51.560;4.642;2024-02-26T15:12:55;5.65;99.99
68251;DHT22;55066;51.560;4.642;2024-02-26T15:15:21;5.60;99.99
68251;DHT22;55066;51.560;4.642;2024-02-26T15:17:47;5.56;99.99
68251;DHT22;55066;51.560;4.642;2024-02-26T15:20:14;5.55;99.99
68251;DHT22;55066;51.560;4.642;2024-02-26T15:22:40;5.60;99.99
68251;DHT22;55066;51.560;4.642;2024-02-26T15:25:06;5.65;99.99
68251;DHT22;55066;51.560;4.642;2024-02-26T15:27:32;5.65;99.99
68251;DHT22;55066;51.560;4.642;2024-02-26T15:29:57;5.67;99.99
68251;DHT22;55066;51.560;4.642;2024-02-26T15:32:25;5.67;99.99
68251;DHT22;55066;51.560;4.642;2024-02-26T15:34:51;5.65;99.99
68251;DHT22;55066;51.560;4.642;2024-02-26T15:37:17;5.67;99.99
68251;DHT22;55066;51.560;4.642;2024-02-26T15:39:42;5.65;99.99
68251;DHT22;55066;51.560;4.642;2024-02-26T15:42:08;5.66;99.99
68251;DHT22;55066;51.560;4.642;2024-02-26T15:44:33;5.69;99.99
68251;DHT22;55066;51.560;4.642;2024-02-26T15:46:59;5.65;99.99
68251;DHT22;55066;51.560;4.642;2024-02-26T15:49:25;5.67;99.99